Time;durP1;ratioP1;P1;durP2;ratioP2;P2;SDS_P1;SDS_P2;PMS_P1;PMS_P2;Temp;Humidity;BMP_temperature;BMP_pressure;BME280_temperature;BME280_humidity;BME280_pressure;Samples;Min_cycle;Max_cycle;Signal;HPM_P1;HPM_P2
2022/05/30 00:00:18;;;;;;;7.73;2.13;;;;;;;;;;5015402;28;20303;-83
2022/05/30 00:02:46;;;;;;;7.70;2.10;;;;;;;;;;5025389;28;20307;-85
2022/05/30 00:05:12;;;;;;;10.27;2.13;;;;;;;;;;5019172;28;20232;-87
2022/05/30 00:07:38;;;;;;;8.37;2.40;;;;;;;;;;5019880;28;20235;-85
2022/05/30 00:10:05;;;;;;;8.87;2.40;;;;;;;;;;5013387;28;20220;-86
2022/05/30 00:12:34;;;;;;;7.17;2.43;;;;;;;;;;5015508;28;20668;-85
2022/05/30 00:15:00;;;;;;;10.23;2.20;;;;;;;;;;4998960;28;20227;-86
2022/05/30 00:17:28;;;;;;;9.80;2.27;;;;;;;;;;5005337;28;20220;-85
2022/05/30 00:19:53;;;;;;;7.37;2.20;;;;;;;;;;5028171;28;20294;-84
2022/05/30 00:22:23;;;;;;;9.63;2.87;;;;;;;;;;5019988;28;20246;-80
2022/05/30 00:24:49;;;;;;;9.47;2.13;;;;;;;;;;5018207;28;20294;-84
2022/05/30 00:27:18;;;;;;;7.23;2.13;;;;;;;;;;5028136;28;20248;-85
2022/05/30 00:29:43;;;;;;;14.10;2.57;;;;;;;;;;5041799;28;20239;-82
2022/05/30 00:32:09;;;;;;;9.00;2.47;;;;;;;;;;5056309;28;20227;-83
2022/05/30 00:34:34;;;;;;;9.63;2.47;;;;;;;;;;5012210;28;20228;-83
2022/05/30 00:37:00;;;;;;;12.47;2.43;;;;;;;;;;5006930;28;20221;-84
2022/05/30 00:39:25;;;;;;;8.77;2.87;;;;;;;;;;5021509;28;20208;-86
2022/05/30 00:41:51;;;;;;;10.63;2.70;;;;;;;;;;5000589;28;20251;-83
2022/05/30 00:44:19;;;;;;;7.23;2.47;;;;;;;;;;4990025;28;20232;-83
2022/05/30 00:46:46;;;;;;;9.13;2.57;;;;;;;;;;4999012;28;20236;-85
2022/05/30 00:49:12;;;;;;;10.20;2.57;;;;;;;;;;4985443;28;20271;-83
2022/05/30 00:51:45;;;;;;;7.90;2.50;;;;;;;;;;5016349;28;20222;-84
2022/05/30 00:54:15;;;;;;;7.97;2.60;;;;;;;;;;5019084;28;20699;-85
2022/05/30 00:56:45;;;;;;;10.13;2.50;;;;;;;;;;5019692;28;20302;-83
2022/05/30 00:59:13;;;;;;;10.30;2.67;;;;;;;;;;4992233;28;20218;-85
2022/05/30 01:01:38;;;;;;;13.10;2.80;;;;;;;;;;5018101;28;20227;-86
2022/05/30 01:06:54;;;;;;;14.77;3.03;;;;;;;;;;5017488;28;20362;-86
2022/05/30 01:09:27;;;;;;;10.97;3.13;;;;;;;;;;4999203;28;21689;-85
2022/05/30 01:12:00;;;;;;;10.27;2.90;;;;;;;;;;5003269;28;20220;-85
2022/05/30 01:17:59;;;;;;;10.50;2.87;;;;;;;;;;5004614;28;20224;-84
2022/05/30 01:20:28;;;;;;;9.50;2.80;;;;;;;;;;4997148;28;20222;-85
2022/05/30 01:22:59;;;;;;;10.33;2.90;;;;;;;;;;5035759;28;20219;-84
2022/05/30 01:25:29;;;;;;;7.17;2.93;;;;;;;;;;5050862;28;20248;-84
2022/05/30 01:28:35;;;;;;;10.77;3.00;;;;;;;;;;5051534;28;20220;-84
2022/05/30 01:31:01;;;;;;;6.63;2.40;;;;;;;;;;5040760;28;20284;-85
2022/05/30 01:33:26;;;;;;;10.97;2.93;;;;;;;;;;5021959;28;20312;-87
2022/05/30 01:35:54;;;;;;;12.17;3.00;;;;;;;;;;5016434;28;20223;-86
2022/05/30 01:38:21;;;;;;;10.37;3.10;;;;;;;;;;5018404;28;20546;-86
2022/05/30 01:40:51;;;;;;;7.33;2.73;;;;;;;;;;5007042;28;20231;-85
2022/05/30 01:43:19;;;;;;;6.50;2.50;;;;;;;;;;5003557;28;20230;-85
2022/05/30 01:45:49;;;;;;;10.23;2.70;;;;;;;;;;5015452;28;20281;-85
2022/05/30 01:48:15;;;;;;;10.67;2.60;;;;;;;;;;4998313;28;20306;-85
2022/05/30 01:50:40;;;;;;;9.60;3.00;;;;;;;;;;4989033;28;20215;-85
2022/05/30 01:53:18;;;;;;;10.17;2.97;;;;;;;;;;4996033;28;20239;-85
2022/05/30 01:56:03;;;;;;;12.60;3.10;;;;;;;;;;5034018;28;20223;-86
2022/05/30 01:58:34;;;;;;;10.87;3.07;;;;;;;;;;4982281;28;20227;-86
2022/05/30 02:01:34;;;;;;;12.43;3.23;;;;;;;;;;5019775;28;20237;-86
2022/05/30 02:04:02;;;;;;;10.17;2.80;;;;;;;;;;5000623;28;20232;-86
2022/05/30 02:06:32;;;;;;;13.60;3.40;;;;;;;;;;5001934;28;20215;-86
2022/05/30 02:08:58;;;;;;;10.23;2.87;;;;;;;;;;5003231;28;20646;-85
2022/05/30 02:11:27;;;;;;;8.33;3.10;;;;;;;;;;4995097;28;20211;-86
2022/05/30 02:14:02;;;;;;;9.47;3.23;;;;;;;;;;5025091;28;20717;-84
2022/05/30 02:19:16;;;;;;;11.57;3.10;;;;;;;;;;5028535;28;20282;-85
2022/05/30 02:21:43;;;;;;;11.07;2.93;;;;;;;;;;5004700;28;20231;-87
2022/05/30 02:24:12;;;;;;;13.83;3.50;;;;;;;;;;5023271;28;20760;-87
2022/05/30 02:26:40;;;;;;;10.33;3.10;;;;;;;;;;5004651;28;20224;-85
2022/05/30 02:29:11;;;;;;;13.30;3.40;;;;;;;;;;5038077;28;20216;-85
2022/05/30 02:32:19;;;;;;;10.10;3.40;;;;;;;;;;5032503;28;20249;-89
2022/05/30 02:37:29;;;;;;;9.93;2.90;;;;;;;;;;5030888;28;20227;-88
2022/05/30 02:40:00;;;;;;;11.63;3.23;;;;;;;;;;5014145;28;20216;-88
2022/05/30 02:46:07;;;;;;;13.93;3.17;;;;;;;;;;5029609;28;20252;-73
2022/05/30 02:48:35;;;;;;;7.57;2.90;;;;;;;;;;5017861;28;20227;-74
2022/05/30 02:51:01;;;;;;;10.77;3.13;;;;;;;;;;5019713;28;20212;-73
2022/05/30 02:53:29;;;;;;;10.80;2.70;;;;;;;;;;5014187;28;20303;-73
2022/05/30 02:56:20;;;;;;;12.57;2.97;;;;;;;;;;5003521;28;20232;-73
2022/05/30 02:58:46;;;;;;;15.53;3.30;;;;;;;;;;5017157;28;20313;-74
2022/05/30 03:01:12;;;;;;;9.93;2.97;;;;;;;;;;5014311;28;20666;-73
2022/05/30 03:03:40;;;;;;;7.80;2.97;;;;;;;;;;5019048;28;20808;-72
2022/05/30 03:06:06;;;;;;;12.67;2.70;;;;;;;;;;5010732;28;20652;-74
2022/05/30 03:08:31;;;;;;;11.50;3.03;;;;;;;;;;5018615;28;20344;-73
2022/05/30 03:11:20;;;;;;;9.00;2.80;;;;;;;;;;5029880;28;20736;-72
2022/05/30 03:13:47;;;;;;;9.77;2.90;;;;;;;;;;5005470;28;20227;-73
2022/05/30 03:16:17;;;;;;;7.43;2.40;;;;;;;;;;5037874;28;20228;-73
2022/05/30 03:18:43;;;;;;;10.47;3.00;;;;;;;;;;5014779;28;20223;-73
2022/05/30 03:21:11;;;;;;;9.80;3.07;;;;;;;;;;5007588;28;20731;-74
2022/05/30 03:23:37;;;;;;;5.37;2.47;;;;;;;;;;5001740;28;20223;-73
2022/05/30 03:26:14;;;;;;;9.27;2.53;;;;;;;;;;5003576;28;20215;-73
2022/05/30 03:28:40;;;;;;;9.43;2.70;;;;;;;;;;5020184;28;20695;-73
2022/05/30 03:31:10;;;;;;;5.27;2.10;;;;;;;;;;5027118;28;20228;-73
2022/05/30 03:33:40;;;;;;;12.87;2.60;;;;;;;;;;5035251;28;20221;-74
2022/05/30 03:36:17;;;;;;;12.13;2.77;;;;;;;;;;5005100;28;20262;-74
2022/05/30 03:39:03;;;;;;;8.27;2.40;;;;;;;;;;5019823;28;20220;-73
2022/05/30 03:41:56;;;;;;;10.37;2.47;;;;;;;;;;4996323;28;20292;-72
2022/05/30 03:44:29;;;;;;;11.80;2.60;;;;;;;;;;5051859;28;20277;-74
2022/05/30 03:46:57;;;;;;;6.97;2.23;;;;;;;;;;5032918;28;20804;-74
2022/05/30 03:49:23;;;;;;;8.97;2.50;;;;;;;;;;5026169;28;20722;-74
2022/05/30 03:51:50;;;;;;;10.90;2.80;;;;;;;;;;5014325;28;20311;-74
2022/05/30 03:54:20;;;;;;;9.07;2.20;;;;;;;;;;5020229;28;20220;-73
2022/05/30 03:56:49;;;;;;;6.83;2.40;;;;;;;;;;5000699;28;20290;-74
2022/05/30 03:59:14;;;;;;;8.90;2.63;;;;;;;;;;5018460;28;20226;-74
2022/05/30 04:01:40;;;;;;;10.50;2.80;;;;;;;;;;5013617;28;20240;-73
2022/05/30 04:04:08;;;;;;;7.83;2.40;;;;;;;;;;5001888;28;20238;-73
2022/05/30 04:06:36;;;;;;;7.07;1.93;;;;;;;;;;5010966;28;20224;-73
2022/05/30 04:09:02;;;;;;;6.73;2.27;;;;;;;;;;5023035;28;20228;-74
2022/05/30 04:11:28;;;;;;;7.87;2.60;;;;;;;;;;5004118;28;20280;-74
2022/05/30 04:14:16;;;;;;;9.47;3.20;;;;;;;;;;5012809;28;20306;-72
2022/05/30 04:16:54;;;;;;;6.20;2.37;;;;;;;;;;5039694;28;20223;-74
2022/05/30 04:19:20;;;;;;;5.67;1.90;;;;;;;;;;5034071;28;20241;-74
2022/05/30 04:21:45;;;;;;;6.37;2.00;;;;;;;;;;5027351;28;20230;-73
2022/05/30 04:24:16;;;;;;;7.57;2.10;;;;;;;;;;5022275;28;20277;-72
2022/05/30 04:26:50;;;;;;;5.77;2.10;;;;;;;;;;5007218;28;20221;-73
2022/05/30 04:29:19;;;;;;;7.27;2.10;;;;;;;;;;5008062;28;20565;-74
2022/05/30 04:32:05;;;;;;;9.17;2.23;;;;;;;;;;5024660;28;20575;-73
2022/05/30 04:34:32;;;;;;;3.87;1.90;;;;;;;;;;5002164;28;20217;-73
2022/05/30 04:36:57;;;;;;;9.03;1.83;;;;;;;;;;5016921;28;20302;-73
2022/05/30 04:39:25;;;;;;;8.17;2.00;;;;;;;;;;5028381;28;20229;-73
2022/05/30 04:41:51;;;;;;;6.37;2.10;;;;;;;;;;5003429;28;20220;-74
2022/05/30 04:44:22;;;;;;;7.57;1.90;;;;;;;;;;5012466;28;20650;-73
2022/05/30 04:47:13;;;;;;;7.47;1.90;;;;;;;;;;4999242;28;20219;-74
2022/05/30 04:49:44;;;;;;;6.13;2.00;;;;;;;;;;5028316;28;20727;-74
2022/05/30 04:52:09;;;;;;;7.27;1.83;;;;;;;;;;5001548;28;20212;-74
2022/05/30 04:54:36;;;;;;;4.27;2.27;;;;;;;;;;5019949;28;20228;-73
2022/05/30 04:57:22;;;;;;;4.13;1.87;;;;;;;;;;5025269;28;20491;-74
2022/05/30 05:00:19;;;;;;;7.87;1.97;;;;;;;;;;5024488;28;20231;-73
2022/05/30 05:02:47;;;;;;;6.60;1.60;;;;;;;;;;4997796;28;20228;-73
2022/05/30 05:05:15;;;;;;;5.07;1.93;;;;;;;;;;5003675;28;20224;-75
2022/05/30 05:07:49;;;;;;;6.43;1.63;;;;;;;;;;5036405;28;20761;-73
2022/05/30 05:10:33;;;;;;;5.43;1.80;;;;;;;;;;4995182;28;20221;-75
2022/05/30 05:13:17;;;;;;;7.17;2.27;;;;;;;;;;5004975;28;20213;-73
2022/05/30 05:16:23;;;;;;;9.00;2.10;;;;;;;;;;4962445;28;20233;-73
2022/05/30 05:18:52;;;;;;;6.83;2.33;;;;;;;;;;4960258;28;20249;-73
2022/05/30 05:21:18;;;;;;;7.13;1.87;;;;;;;;;;5010736;28;20223;-73
2022/05/30 05:23:46;;;;;;;6.50;1.80;;;;;;;;;;5008808;28;20235;-73
2022/05/30 05:26:15;;;;;;;7.93;1.80;;;;;;;;;;4979633;28;20232;-72
2022/05/30 05:28:59;;;;;;;6.90;1.77;;;;;;;;;;5036638;28;20301;-71
2022/05/30 05:31:34;;;;;;;6.67;1.97;;;;;;;;;;5002970;28;20669;-72
2022/05/30 05:34:04;;;;;;;5.43;2.17;;;;;;;;;;5013551;28;20230;-72
2022/05/30 05:36:34;;;;;;;7.73;2.50;;;;;;;;;;5031932;28;20216;-73
2022/05/30 05:39:02;;;;;;;4.53;1.87;;;;;;;;;;5005707;28;20228;-72
2022/05/30 05:41:53;;;;;;;5.20;1.90;;;;;;;;;;5014942;28;20227;-72
2022/05/30 05:44:21;;;;;;;6.10;1.83;;;;;;;;;;5034600;28;20592;-74
2022/05/30 05:46:50;;;;;;;4.83;1.90;;;;;;;;;;5000284;28;20247;-73
2022/05/30 05:49:19;;;;;;;4.13;1.80;;;;;;;;;;4994522;28;20698;-73
2022/05/30 05:51:45;;;;;;;4.50;1.83;;;;;;;;;;5011466;28;20244;-74
2022/05/30 05:54:12;;;;;;;4.83;1.77;;;;;;;;;;5015740;28;20232;-71
2022/05/30 05:56:40;;;;;;;5.97;1.90;;;;;;;;;;5012148;28;20270;-73
2022/05/30 05:59:15;;;;;;;6.43;1.90;;;;;;;;;;5000545;28;20352;-73
2022/05/30 06:01:40;;;;;;;5.03;1.70;;;;;;;;;;5014128;28;20323;-73
2022/05/30 06:04:12;;;;;;;5.83;1.60;;;;;;;;;;5006508;28;20236;-73
2022/05/30 06:07:02;;;;;;;7.10;2.00;;;;;;;;;;5005501;28;20231;-72
2022/05/30 06:09:40;;;;;;;5.93;1.87;;;;;;;;;;5023648;28;20288;-73
2022/05/30 06:12:20;;;;;;;4.60;1.63;;;;;;;;;;4981554;28;20233;-72
2022/05/30 06:14:45;;;;;;;6.90;2.00;;;;;;;;;;5017887;28;20225;-71
2022/05/30 06:17:11;;;;;;;5.80;1.80;;;;;;;;;;4994682;28;20223;-72
2022/05/30 06:19:39;;;;;;;3.03;1.43;;;;;;;;;;5018805;28;20227;-75
2022/05/30 06:22:04;;;;;;;6.07;1.57;;;;;;;;;;5035473;28;20231;-73
2022/05/30 06:24:34;;;;;;;4.37;1.60;;;;;;;;;;5016266;28;20575;-72
2022/05/30 06:27:23;;;;;;;4.23;1.50;;;;;;;;;;5035215;28;20648;-73
2022/05/30 06:29:54;;;;;;;5.13;1.50;;;;;;;;;;5040726;28;20289;-72
2022/05/30 06:32:22;;;;;;;5.73;1.37;;;;;;;;;;5000797;28;20208;-72
2022/05/30 06:35:12;;;;;;;4.13;1.30;;;;;;;;;;4990540;28;20607;-71
2022/05/30 06:37:54;;;;;;;3.40;1.30;;;;;;;;;;5036589;28;20660;-72
2022/05/30 06:40:20;;;;;;;6.80;1.40;;;;;;;;;;5031577;28;20758;-73
2022/05/30 06:42:57;;;;;;;5.43;1.60;;;;;;;;;;5024556;28;20224;-73
2022/05/30 06:45:25;;;;;;;5.60;1.33;;;;;;;;;;5026141;28;20580;-73
2022/05/30 06:48:09;;;;;;;3.47;1.30;;;;;;;;;;5010625;28;20247;-71
2022/05/30 06:50:50;;;;;;;3.57;1.30;;;;;;;;;;5014416;28;20741;-73
2022/05/30 06:53:18;;;;;;;3.63;1.30;;;;;;;;;;5028565;28;20220;-73
2022/05/30 06:55:49;;;;;;;6.53;1.30;;;;;;;;;;5012880;28;20281;-71
2022/05/30 06:58:20;;;;;;;3.63;1.30;;;;;;;;;;5020363;28;20303;-72
2022/05/30 07:00:46;;;;;;;4.33;1.40;;;;;;;;;;4996476;28;20316;-72
2022/05/30 07:03:32;;;;;;;3.20;1.23;;;;;;;;;;5015316;28;20743;-73
2022/05/30 07:06:19;;;;;;;4.83;1.40;;;;;;;;;;5030167;28;20235;-72
2022/05/30 07:09:06;;;;;;;4.60;1.37;;;;;;;;;;5021247;28;20258;-73
2022/05/30 07:11:50;;;;;;;4.13;1.30;;;;;;;;;;5033819;28;20238;-73
2022/05/30 07:14:19;;;;;;;4.03;1.57;;;;;;;;;;5028326;28;20298;-72
2022/05/30 07:16:45;;;;;;;4.63;1.50;;;;;;;;;;5025753;28;20223;-73
2022/05/30 07:19:12;;;;;;;4.77;1.27;;;;;;;;;;5036445;28;20653;-73
2022/05/30 07:21:46;;;;;;;8.13;1.33;;;;;;;;;;4996448;28;20239;-73
2022/05/30 07:24:37;;;;;;;3.50;1.27;;;;;;;;;;5044123;28;20242;-73
2022/05/30 07:27:24;;;;;;;4.43;1.40;;;;;;;;;;5037232;28;25057;-73
2022/05/30 07:30:09;;;;;;;5.10;1.20;;;;;;;;;;5040355;28;20663;-72
2022/05/30 07:32:54;;;;;;;4.03;1.47;;;;;;;;;;5045301;28;20219;-72
2022/05/30 07:35:41;;;;;;;4.47;1.40;;;;;;;;;;5030032;28;20246;-73
2022/05/30 07:38:26;;;;;;;4.60;1.03;;;;;;;;;;5029191;28;20242;-72
2022/05/30 07:41:18;;;;;;;6.47;1.43;;;;;;;;;;5011021;28;20219;-72
2022/05/30 07:43:52;;;;;;;4.60;1.40;;;;;;;;;;5002274;28;20606;-72
2022/05/30 07:46:48;;;;;;;5.77;1.80;;;;;;;;;;5006975;28;20306;-72
2022/05/30 07:49:27;;;;;;;4.50;1.50;;;;;;;;;;5019504;28;20233;-72
2022/05/30 07:51:57;;;;;;;5.53;1.50;;;;;;;;;;5044133;28;20252;-74
2022/05/30 07:54:43;;;;;;;4.17;1.40;;;;;;;;;;5002461;28;20216;-72
2022/05/30 07:57:14;;;;;;;7.90;1.73;;;;;;;;;;5029250;28;20220;-72
2022/05/30 07:59:40;;;;;;;3.13;1.43;;;;;;;;;;5028783;28;20259;-72
2022/05/30 08:02:10;;;;;;;3.10;1.10;;;;;;;;;;4998807;28;20599;-72
2022/05/30 08:04:38;;;;;;;3.50;1.87;;;;;;;;;;5002855;28;20227;-73
2022/05/30 08:07:39;;;;;;;4.87;1.13;;;;;;;;;;4994033;28;20252;-73
2022/05/30 08:10:30;;;;;;;3.03;1.20;;;;;;;;;;5010511;28;20697;-73
2022/05/30 08:12:55;;;;;;;6.17;1.80;;;;;;;;;;5004457;28;20239;-72
2022/05/30 08:15:26;;;;;;;4.20;1.40;;;;;;;;;;4986008;28;20588;-72
2022/05/30 08:18:15;;;;;;;5.53;1.47;;;;;;;;;;5038876;28;20803;-72
2022/05/30 08:20:43;;;;;;;3.53;1.00;;;;;;;;;;5037686;28;20215;-72
2022/05/30 08:23:11;;;;;;;4.07;1.20;;;;;;;;;;4995567;28;20249;-71
2022/05/30 08:25:39;;;;;;;3.07;1.40;;;;;;;;;;5021275;28;20231;-73
2022/05/30 08:28:08;;;;;;;3.30;0.93;;;;;;;;;;5020900;28;20732;-74
2022/05/30 08:30:37;;;;;;;3.13;1.10;;;;;;;;;;5009699;28;20236;-71
2022/05/30 08:33:29;;;;;;;7.33;1.20;;;;;;;;;;5003369;28;20238;-74
2022/05/30 08:36:13;;;;;;;4.07;1.17;;;;;;;;;;5014859;28;20227;-73
2022/05/30 08:38:42;;;;;;;3.70;1.30;;;;;;;;;;5007796;28;20227;-74
2022/05/30 08:44:30;;;;;;;2.83;1.27;;;;;;;;;;5011377;28;20235;-72
2022/05/30 08:47:47;;;;;;;5.53;1.27;;;;;;;;;;5008125;28;20240;-73
2022/05/30 08:50:34;;;;;;;5.83;1.20;;;;;;;;;;4979034;28;20653;-73
2022/05/30 08:53:23;;;;;;;4.45;1.23;;;;;;;;;;4991423;28;20305;-73
2022/05/30 08:56:16;;;;;;;3.63;1.17;;;;;;;;;;5046794;28;20223;-72
2022/05/30 08:59:41;;;;;;;4.40;1.30;;;;;;;;;;4998644;28;20247;-73
2022/05/30 09:02:13;;;;;;;2.10;1.00;;;;;;;;;;5021714;28;20250;-72
2022/05/30 09:04:57;;;;;;;4.33;1.10;;;;;;;;;;5007805;28;20220;-73
2022/05/30 09:07:30;;;;;;;3.23;1.23;;;;;;;;;;5011910;28;20760;-75
2022/05/30 09:10:15;;;;;;;6.37;1.23;;;;;;;;;;4998750;28;20216;-72
2022/05/30 09:13:00;;;;;;;4.03;1.17;;;;;;;;;;5040753;28;20234;-72
2022/05/30 09:16:09;;;;;;;2.73;0.90;;;;;;;;;;5027548;28;20247;-73
2022/05/30 09:18:53;;;;;;;1.77;0.97;;;;;;;;;;5012231;28;20227;-73
2022/05/30 09:21:23;;;;;;;2.13;1.00;;;;;;;;;;4982701;28;20263;-73
2022/05/30 09:23:49;;;;;;;4.23;1.20;;;;;;;;;;5019691;28;20239;-73
2022/05/30 09:26:21;;;;;;;4.10;1.50;;;;;;;;;;5033741;28;20216;-74
2022/05/30 09:29:17;;;;;;;2.73;1.20;;;;;;;;;;5026946;28;20224;-71
2022/05/30 09:32:35;;;;;;;5.33;1.23;;;;;;;;;;5054267;28;20238;-72
2022/05/30 09:35:30;;;;;;;3.00;1.17;;;;;;;;;;5022399;28;20275;-72
2022/05/30 09:38:18;;;;;;;3.60;1.27;;;;;;;;;;5021180;28;20243;-72
2022/05/30 09:41:24;;;;;;;7.33;1.70;;;;;;;;;;5014472;28;20223;-71
2022/05/30 09:44:01;;;;;;;4.43;1.87;;;;;;;;;;5009950;28;20224;-72
2022/05/30 09:46:50;;;;;;;4.47;1.87;;;;;;;;;;4999555;28;20226;-73
2022/05/30 09:49:39;;;;;;;3.37;1.20;;;;;;;;;;5025154;28;20280;-73
2022/05/30 09:52:37;;;;;;;4.77;2.20;;;;;;;;;;5000914;28;20751;-72
2022/05/30 09:55:27;;;;;;;4.63;1.57;;;;;;;;;;5012461;28;20216;-72
2022/05/30 09:57:57;;;;;;;3.17;1.00;;;;;;;;;;5018113;28;20275;-74
2022/05/30 10:00:54;;;;;;;7.20;1.83;;;;;;;;;;4994979;28;20272;-72
2022/05/30 10:03:33;;;;;;;3.30;1.77;;;;;;;;;;4999249;28;20220;-72
2022/05/30 10:06:28;;;;;;;3.77;1.70;;;;;;;;;;5012409;28;20310;-73
2022/05/30 10:09:21;;;;;;;4.97;1.40;;;;;;;;;;5008274;28;20680;-72
2022/05/30 10:11:53;;;;;;;5.27;1.27;;;;;;;;;;5004886;28;20705;-72
2022/05/30 10:14:28;;;;;;;6.27;2.30;;;;;;;;;;5014117;28;20243;-73
2022/05/30 10:17:32;;;;;;;4.47;2.20;;;;;;;;;;5023804;28;20303;-72
2022/05/30 10:20:11;;;;;;;5.20;2.03;;;;;;;;;;5015090;28;20293;-72
2022/05/30 10:30:08;;;;;;;3.47;0.90;;;;;;;;;;5033071;28;20257;-72
2022/05/30 10:33:01;;;;;;;2.93;1.30;;;;;;;;;;5034926;28;20230;-73
2022/05/30 10:35:57;;;;;;;2.60;1.00;;;;;;;;;;5036762;28;20218;-73
2022/05/30 10:39:03;;;;;;;2.23;0.70;;;;;;;;;;4996414;28;20221;-74
2022/05/30 10:41:42;;;;;;;3.60;0.90;;;;;;;;;;5026601;28;20228;-72
2022/05/30 10:44:26;;;;;;;1.37;0.90;;;;;;;;;;5005981;28;20228;-72
2022/05/30 10:47:15;;;;;;;3.40;1.03;;;;;;;;;;5013100;28;20220;-72
2022/05/30 10:50:10;;;;;;;2.80;1.10;;;;;;;;;;5016481;28;20228;-71
2022/05/30 10:52:42;;;;;;;3.77;1.00;;;;;;;;;;5033510;28;20758;-72
2022/05/30 10:55:19;;;;;;;6.00;1.20;;;;;;;;;;5026222;28;20635;-70
2022/05/30 10:57:48;;;;;;;2.40;1.30;;;;;;;;;;4999470;28;20259;-72
2022/05/30 11:00:14;;;;;;;2.47;0.93;;;;;;;;;;5020321;28;20302;-71
2022/05/30 11:03:05;;;;;;;3.97;1.00;;;;;;;;;;5051571;28;20773;-72
2022/05/30 11:05:37;;;;;;;4.03;1.00;;;;;;;;;;5022735;28;20224;-73
2022/05/30 11:08:14;;;;;;;3.70;1.20;;;;;;;;;;5021747;28;20244;-74
2022/05/30 11:10:59;;;;;;;3.77;0.80;;;;;;;;;;5017093;28;20310;-72
2022/05/30 11:13:40;;;;;;;4.13;2.20;;;;;;;;;;5026878;28;20300;-72
2022/05/30 11:16:43;;;;;;;2.83;1.60;;;;;;;;;;5023817;28;20315;-74
2022/05/30 11:19:37;;;;;;;2.40;1.20;;;;;;;;;;5037727;28;20231;-71
2022/05/30 11:22:36;;;;;;;4.18;1.20;;;;;;;;;;5021659;28;20231;-72
2022/05/30 11:25:03;;;;;;;3.35;1.10;;;;;;;;;;5057699;28;20262;-71
2022/05/30 11:27:49;;;;;;;3.10;1.10;;;;;;;;;;5007709;28;20286;-71
2022/05/30 11:30:22;;;;;;;2.80;1.13;;;;;;;;;;5023602;28;20685;-71
2022/05/30 11:33:08;;;;;;;3.00;1.17;;;;;;;;;;5037024;28;20220;-71
2022/05/30 11:35:41;;;;;;;4.72;1.20;;;;;;;;;;5022959;28;20267;-73
2022/05/30 11:38:20;;;;;;;2.43;1.13;;;;;;;;;;5035079;28;20518;-71
2022/05/30 11:41:20;;;;;;;2.90;1.20;;;;;;;;;;5035456;28;20236;-71
2022/05/30 11:44:17;;;;;;;3.07;1.30;;;;;;;;;;5030588;28;20315;-71
2022/05/30 11:46:52;;;;;;;1.40;1.10;;;;;;;;;;5007589;28;20236;-72
2022/05/30 11:49:37;;;;;;;3.33;1.50;;;;;;;;;;5025540;28;20227;-71
2022/05/30 11:52:23;;;;;;;4.30;1.40;;;;;;;;;;4999700;28;20231;-72
2022/05/30 11:54:54;;;;;;;1.77;1.03;;;;;;;;;;5013229;28;20227;-74
2022/05/30 11:57:34;;;;;;;3.03;1.20;;;;;;;;;;5016463;28;20220;-72
2022/05/30 12:00:34;;;;;;;3.33;1.10;;;;;;;;;;5038622;28;20232;-71
2022/05/30 12:03:24;;;;;;;1.43;0.83;;;;;;;;;;5014961;28;20228;-71
2022/05/30 12:06:21;;;;;;;2.40;1.10;;;;;;;;;;5049788;28;20228;-70
2022/05/30 12:09:09;;;;;;;2.27;0.90;;;;;;;;;;5018394;28;20226;-72
2022/05/30 12:11:52;;;;;;;2.90;0.80;;;;;;;;;;5038470;28;20228;-73
2022/05/30 12:14:47;;;;;;;5.63;1.10;;;;;;;;;;5040703;28;20712;-72
2022/05/30 12:23:51;;;;;;;1.87;0.90;;;;;;;;;;5035262;28;20235;-72
2022/05/30 12:26:54;;;;;;;1.80;0.90;;;;;;;;;;4990536;28;20700;-73
2022/05/30 12:29:31;;;;;;;3.40;1.10;;;;;;;;;;5014372;28;20697;-73
2022/05/30 12:32:12;;;;;;;1.90;1.10;;;;;;;;;;5016147;28;20231;-73
2022/05/30 12:35:02;;;;;;;3.10;1.30;;;;;;;;;;5050404;28;20307;-73
2022/05/30 12:37:47;;;;;;;2.07;0.80;;;;;;;;;;5047373;28;20248;-74
2022/05/30 12:40:27;;;;;;;3.70;1.10;;;;;;;;;;5023037;28;20284;-74
2022/05/30 12:43:08;;;;;;;3.10;1.00;;;;;;;;;;5036956;28;20748;-74
2022/05/30 12:45:40;;;;;;;1.77;1.03;;;;;;;;;;5022766;28;20219;-75
2022/05/30 12:48:33;;;;;;;3.37;0.87;;;;;;;;;;5014098;28;20237;-74
2022/05/30 12:51:01;;;;;;;3.40;1.00;;;;;;;;;;5034241;28;20224;-71
2022/05/30 12:53:57;;;;;;;1.57;0.93;;;;;;;;;;5049889;28;20354;-72
2022/05/30 12:56:40;;;;;;;3.67;1.53;;;;;;;;;;5036728;28;20236;-73
2022/05/30 12:59:06;;;;;;;2.60;1.10;;;;;;;;;;5020123;28;20696;-73
2022/05/30 13:01:44;;;;;;;1.23;1.00;;;;;;;;;;5037031;28;20251;-73
2022/05/30 13:04:15;;;;;;;3.67;1.00;;;;;;;;;;5018940;28;20240;-72
2022/05/30 13:06:56;;;;;;;2.13;1.10;;;;;;;;;;5026341;28;20665;-72
2022/05/30 13:09:30;;;;;;;4.43;1.13;;;;;;;;;;5001116;28;20235;-74
2022/05/30 13:11:55;;;;;;;2.75;1.23;;;;;;;;;;5004267;28;20318;-73
2022/05/30 13:14:48;;;;;;;3.20;1.43;;;;;;;;;;5054237;28;20313;-74
2022/05/30 13:17:28;;;;;;;2.58;1.10;;;;;;;;;;5020881;28;20223;-72
2022/05/30 13:19:56;;;;;;;2.43;1.20;;;;;;;;;;5024140;28;20641;-72
2022/05/30 13:22:35;;;;;;;2.83;1.10;;;;;;;;;;5035269;28;20231;-72
2022/05/30 13:25:00;;;;;;;2.50;1.20;;;;;;;;;;5004952;28;20310;-73
2022/05/30 13:27:27;;;;;;;1.85;0.90;;;;;;;;;;5019171;28;20298;-73
2022/05/30 13:29:55;;;;;;;2.30;1.10;;;;;;;;;;5023011;28;20221;-73
2022/05/30 13:32:22;;;;;;;2.72;0.98;;;;;;;;;;5023688;28;20216;-73
2022/05/30 13:34:53;;;;;;;1.25;0.85;;;;;;;;;;5010161;28;20228;-72
2022/05/30 13:37:31;;;;;;;2.38;0.90;;;;;;;;;;5029055;28;20286;-72
2022/05/30 13:40:00;;;;;;;3.05;1.10;;;;;;;;;;5016400;28;20226;-73
2022/05/30 13:42:31;;;;;;;2.40;0.93;;;;;;;;;;5029831;28;20216;-71
2022/05/30 13:45:02;;;;;;;2.97;1.15;;;;;;;;;;5031177;28;20224;-73
2022/05/30 13:47:28;;;;;;;1.73;0.87;;;;;;;;;;5018115;28;20693;-72
2022/05/30 13:49:54;;;;;;;1.92;0.90;;;;;;;;;;4979922;28;20224;-72
2022/05/30 13:52:25;;;;;;;2.03;1.17;;;;;;;;;;4996513;28;20772;-73
2022/05/30 13:54:55;;;;;;;3.88;1.23;;;;;;;;;;5032764;28;20219;-72
2022/05/30 13:57:21;;;;;;;4.07;1.30;;;;;;;;;;4982576;28;20303;-74
2022/05/30 13:59:53;;;;;;;3.33;1.27;;;;;;;;;;5031307;28;20311;-72
2022/05/30 14:02:25;;;;;;;2.60;0.90;;;;;;;;;;5004215;28;20219;-72
2022/05/30 14:05:03;;;;;;;2.05;1.10;;;;;;;;;;5003569;28;20300;-71
2022/05/30 14:07:33;;;;;;;2.77;1.10;;;;;;;;;;5017131;28;20231;-71
2022/05/30 14:10:01;;;;;;;2.77;1.23;;;;;;;;;;5014684;28;20285;-72
2022/05/30 14:12:39;;;;;;;2.27;1.07;;;;;;;;;;4999593;28;20211;-72
2022/05/30 14:15:28;;;;;;;2.03;1.10;;;;;;;;;;5019239;28;20223;-72
2022/05/30 14:17:59;;;;;;;2.87;1.00;;;;;;;;;;5028672;28;20235;-73
2022/05/30 14:20:24;;;;;;;3.37;1.20;;;;;;;;;;5037298;28;20244;-74
2022/05/30 14:23:10;;;;;;;3.70;1.70;;;;;;;;;;5038641;28;20632;-72
2022/05/30 14:25:48;;;;;;;4.23;2.00;;;;;;;;;;5037236;28;20228;-72
2022/05/30 14:28:35;;;;;;;2.17;1.73;;;;;;;;;;5033909;28;20602;-72
2022/05/30 14:31:09;;;;;;;3.27;1.20;;;;;;;;;;4998088;28;20221;-70
2022/05/30 14:33:37;;;;;;;1.57;1.00;;;;;;;;;;5020461;28;20276;-74
2022/05/30 14:36:24;;;;;;;3.07;1.30;;;;;;;;;;4991169;28;20331;-74
2022/05/30 14:38:50;;;;;;;4.80;1.57;;;;;;;;;;5054698;28;20395;-73
2022/05/30 14:41:23;;;;;;;2.17;1.20;;;;;;;;;;5040604;28;20750;-73
2022/05/30 14:43:54;;;;;;;3.70;1.45;;;;;;;;;;5030927;28;20230;-73
2022/05/30 14:46:39;;;;;;;3.60;1.13;;;;;;;;;;5027819;28;20282;-74
2022/05/30 14:49:22;;;;;;;5.57;1.60;;;;;;;;;;5006883;28;20311;-74
2022/05/30 14:52:06;;;;;;;2.63;1.20;;;;;;;;;;5016251;28;20693;-71
2022/05/30 14:54:38;;;;;;;3.97;1.50;;;;;;;;;;5021009;28;20216;-72
2022/05/30 14:57:13;;;;;;;3.50;1.70;;;;;;;;;;5024285;28;20311;-73
2022/05/30 14:59:42;;;;;;;3.80;1.40;;;;;;;;;;5023830;28;20219;-73
2022/05/30 15:02:10;;;;;;;2.97;1.50;;;;;;;;;;5036136;28;20760;-73
2022/05/30 15:04:38;;;;;;;2.10;1.40;;;;;;;;;;4982408;28;20335;-72
2022/05/30 15:07:27;;;;;;;1.80;1.40;;;;;;;;;;5007472;28;20303;-72
2022/05/30 15:09:53;;;;;;;2.27;1.17;;;;;;;;;;5010419;28;20227;-73
2022/05/30 15:12:18;;;;;;;7.28;4.35;;;;;;;;;;5005259;28;20849;-76
2022/05/30 15:14:46;;;;;;;8.05;5.70;;;;;;;;;;5009999;28;20220;-73
2022/05/30 15:17:12;;;;;;;3.42;3.00;;;;;;;;;;5024938;28;20234;-74
2022/05/30 15:19:37;;;;;;;3.25;1.50;;;;;;;;;;5029470;28;20307;-73
2022/05/30 15:22:09;;;;;;;1.27;1.10;;;;;;;;;;5024002;28;20231;-72
2022/05/30 15:24:41;;;;;;;2.15;1.50;;;;;;;;;;5013942;28;20232;-74
2022/05/30 15:27:08;;;;;;;2.38;1.10;;;;;;;;;;5019491;28;20212;-75
2022/05/30 15:29:34;;;;;;;2.33;1.20;;;;;;;;;;5018173;28;20220;-74
2022/05/30 15:32:04;;;;;;;2.17;1.00;;;;;;;;;;5021968;28;20221;-74
2022/05/30 15:34:29;;;;;;;3.17;1.10;;;;;;;;;;5021034;28;20591;-73
2022/05/30 15:36:55;;;;;;;1.33;1.10;;;;;;;;;;5003189;28;20232;-73
2022/05/30 15:39:21;;;;;;;1.65;1.00;;;;;;;;;;5003878;28;20217;-73
2022/05/30 15:41:55;;;;;;;2.38;1.20;;;;;;;;;;5027317;28;20712;-75
2022/05/30 15:44:24;;;;;;;3.40;2.10;;;;;;;;;;5000560;28;20232;-73
2022/05/30 15:46:55;;;;;;;1.95;1.10;;;;;;;;;;5004832;28;20221;-72
2022/05/30 15:49:24;;;;;;;1.88;1.10;;;;;;;;;;5034771;28;20978;-74
2022/05/30 15:51:52;;;;;;;2.33;1.38;;;;;;;;;;5000497;28;20256;-73
2022/05/30 15:57:17;;;;;;;2.53;1.17;;;;;;;;;;4999987;28;20229;-73
2022/05/30 15:59:54;;;;;;;2.03;1.10;;;;;;;;;;5020890;28;20235;-72
2022/05/30 16:02:20;;;;;;;2.67;1.20;;;;;;;;;;5018116;28;20225;-73
2022/05/30 16:04:45;;;;;;;1.42;1.10;;;;;;;;;;5003515;28;20239;-73
2022/05/30 16:07:13;;;;;;;2.57;1.50;;;;;;;;;;5024784;28;20223;-74